Terminal Aerodrome Forecast
Issued by NWS Jackson, MS

Home | Current Version | Previous Version | Text Only | Print | Product List | Glossary On
Versions: 1 2 3 4 5 6 7 8 9 10 11 12 13 14
515
FTUS44 KJAN 282345
TAFMEI
TAF
KMEI 282345Z 2900/2924 32004KT P6SM SCT100
     FM290400 VRB03KT P6SM -SHRA VCTS BKN040CB BKN100
     FM290900 VRB03KT P6SM SCT015 BKN100
     FM291700 22007KT P6SM -TSRA BKN030CB BKN045=

USA.gov is the U.S. government's official web portal to all federal, state and local government web resources and services.